SARM/MCS METAR and TAF weather

Enter ICAO airport designator
Station Type Date Time Source
SARM METAR 2019/06/28 12:15 UTC NOAA

SARM 281215Z 05010KT 9999 TS FEW015 FEW050CB OVC100 17/16 Q1008


Station Type Date Time Source
SARM Decoded METAR 2019/06/28 12:15 UTC NOAA

Monte Caseros Aerodrome, Argentina (SARM) 30-16S 057-39W 54M
Jun 28, 2019 - 08:15 AM EDT / 2019.06.28 1215 UTC
Wind: from the NE (050 degrees) at 12 MPH (10 KT):0
Visibility: greater than 7 mile(s):0
Sky conditions: overcast
Weather: thunder; Cumulonimbus clouds observed
Temperature: 62 F (17 C)
Dew Point: 60 F (16 C)
Relative Humidity: 93%
Pressure (altimeter): 29.77 in. Hg (1008 hPa)
ob: SARM 281215Z 05010KT 9999 TS FEW015 FEW050CB OVC100 17/16 Q1008
cycle: 12

Station Type Date Time Source
SARM TAF UTC NOAA

Error!

Example: see airport list